Time;durP1;ratioP1;P1;durP2;ratioP2;P2;SDS_P1;SDS_P2;PMS_P1;PMS_P2;Temp;Humidity;BMP_temperature;BMP_pressure;BME280_temperature;BME280_humidity;BME280_pressure;Samples;Min_cycle;Max_cycle;Signal;HPM_P1;HPM_P2
2022/04/07 00:01:42;;;;;;;;;;;;;;;17.77;64.81;100062.25;5042405;28;1520;-58
2022/04/07 00:04:09;;;;;;;;;;;;;;;17.76;64.85;100049.84;5041855;28;1595;-62
2022/04/07 00:06:37;;;;;;;;;;;;;;;17.76;64.81;100043.66;5052399;28;1514;-58
2022/04/07 00:09:03;;;;;;;;;;;;;;;17.77;64.64;100043.53;5048562;28;1707;-61
2022/04/07 00:11:30;;;;;;;;;;;;;;;17.72;65.00;100026.22;5044069;28;2012;-59
2022/04/07 00:13:56;;;;;;;;;;;;;;;17.74;64.53;100035.78;5043450;28;1405;-58
2022/04/07 00:16:23;;;;;;;;;;;;;;;17.74;64.82;100025.09;5043588;28;1572;-62
2022/04/07 00:18:51;;;;;;;;;;;;;;;17.75;64.69;100015.25;5047947;28;1448;-58
2022/04/07 00:21:24;;;;;;;;;;;;;;;17.70;64.82;100004.97;5051773;28;1467;-58
2022/04/07 00:23:51;;;;;;;;;;;;;;;17.73;65.02;100006.53;5048756;28;1722;-58
2022/04/07 00:26:17;;;;;;;;;;;;;;;17.70;64.80;100002.28;5044203;28;1600;-59
2022/04/07 00:28:44;;;;;;;;;;;;;;;17.73;65.02;99991.31;5044917;28;1404;-61
2022/04/07 00:31:11;;;;;;;;;;;;;;;17.68;64.89;99993.59;5048231;28;1910;-62
2022/04/07 00:33:38;;;;;;;;;;;;;;;17.69;65.06;100000.63;5047222;28;1610;-62
2022/04/07 00:36:05;;;;;;;;;;;;;;;17.71;65.20;99977.25;5045537;28;1052;-62
2022/04/07 00:38:32;;;;;;;;;;;;;;;17.70;65.05;99980.91;5048501;28;1778;-62
2022/04/07 00:40:58;;;;;;;;;;;;;;;17.71;64.86;99977.25;5046860;28;1209;-62
2022/04/07 00:43:29;;;;;;;;;;;;;;;17.67;65.19;99971.34;5044590;28;1353;-62
2022/04/07 00:45:55;;;;;;;;;;;;;;;17.69;65.06;99974.72;5043305;28;1611;-61
2022/04/07 00:48:22;;;;;;;;;;;;;;;17.69;65.05;99968.53;5044316;28;1585;-59
2022/04/07 00:50:48;;;;;;;;;;;;;;;17.67;64.92;99966.00;5044363;28;1906;-58
2022/04/07 00:53:17;;;;;;;;;;;;;;;17.68;65.02;99962.31;5046599;28;1642;-58
2022/04/07 00:55:44;;;;;;;;;;;;;;;17.67;65.00;99965.19;5043694;28;1883;-58
2022/04/07 00:58:11;;;;;;;;;;;;;;;17.67;64.77;99949.97;5042840;28;1428;-58
2022/04/07 01:00:37;;;;;;;;;;;;;;;17.64;65.25;99944.91;5048007;28;1485;-62
2022/04/07 01:03:04;;;;;;;;;;;;;;;17.82;64.65;99944.97;5045477;28;990;-58
2022/04/07 01:05:31;;;;;;;;;;;;;;;18.22;63.95;99948.31;5041634;28;1615;-58
2022/04/07 01:07:57;;;;;;;;;;;;;;;18.40;62.70;99951.00;5049991;28;1730;-62
2022/04/07 01:10:26;;;;;;;;;;;;;;;18.59;62.29;99932.13;5045490;28;1910;-62
2022/04/07 01:12:52;;;;;;;;;;;;;;;18.86;61.75;99949.13;5045847;28;1712;-62
2022/04/07 01:15:19;;;;;;;;;;;;;;;18.98;62.40;99939.88;5043738;28;1596;-59
2022/04/07 01:17:45;;;;;;;;;;;;;;;19.05;62.05;99946.28;5045084;28;1031;-59
2022/04/07 01:20:12;;;;;;;;;;;;;;;19.07;61.81;99946.13;5048757;28;1506;-62
2022/04/07 01:22:41;;;;;;;;;;;;;;;19.10;61.07;99942.28;5052118;28;1962;-58
2022/04/07 01:25:09;;;;;;;;;;;;;;;19.12;61.32;99934.94;5044221;28;1257;-58
2022/04/07 01:27:36;;;;;;;;;;;;;;;19.23;60.26;99921.28;5047511;28;1451;-62
2022/04/07 01:30:02;;;;;;;;;;;;;;;19.19;61.39;99931.47;5043120;28;1905;-62
2022/04/07 01:32:33;;;;;;;;;;;;;;;19.20;61.39;99922.44;5048096;28;1731;-62
2022/04/07 01:34:59;;;;;;;;;;;;;;;19.19;61.62;99927.97;5045983;28;1283;-62
2022/04/07 01:37:26;;;;;;;;;;;;;;;19.17;60.85;99901.31;5036709;28;1654;-63
2022/04/07 01:39:52;;;;;;;;;;;;;;;19.23;60.71;99911.41;5048322;28;1451;-62
2022/04/07 01:42:20;;;;;;;;;;;;;;;19.23;60.92;99905.19;5047310;28;1731;-61
2022/04/07 01:44:49;;;;;;;;;;;;;;;19.29;60.99;99899.19;5047669;28;1809;-62
2022/04/07 01:47:18;;;;;;;;;;;;;;;19.30;60.66;99875.91;5045493;28;1920;-58
2022/04/07 01:49:46;;;;;;;;;;;;;;;19.32;61.00;99888.19;5046912;28;1985;-59
2022/04/07 01:52:13;;;;;;;;;;;;;;;19.43;61.13;99895.94;5040622;28;1620;-62
2022/04/07 01:54:42;;;;;;;;;;;;;;;19.42;60.17;99878.19;5051466;28;1518;-59
2022/04/07 01:57:08;;;;;;;;;;;;;;;19.43;59.96;99879.84;5045264;28;1551;-62
2022/04/07 01:59:36;;;;;;;;;;;;;;;19.39;61.15;99878.47;5051041;28;1711;-62
2022/04/07 02:02:03;;;;;;;;;;;;;;;19.42;60.15;99872.81;5042223;28;1484;-58
2022/04/07 02:04:29;;;;;;;;;;;;;;;19.45;60.09;99859.06;5044005;28;1643;-61
2022/04/07 02:06:57;;;;;;;;;;;;;;;19.44;59.86;99867.28;5046188;28;1057;-59
2022/04/07 02:09:24;;;;;;;;;;;;;;;19.52;60.18;99885.25;5048783;28;1409;-58
2022/04/07 02:11:50;;;;;;;;;;;;;;;19.52;59.87;99871.81;5042541;28;1910;-62
2022/04/07 02:14:17;;;;;;;;;;;;;;;19.54;60.87;99865.31;5050809;28;1771;-59
2022/04/07 02:16:45;;;;;;;;;;;;;;;19.46;61.02;99855.41;5046365;28;1584;-62
2022/04/07 02:19:11;;;;;;;;;;;;;;;19.48;60.71;99856.09;5043611;28;1874;-58
2022/04/07 02:21:38;;;;;;;;;;;;;;;19.57;59.97;99848.06;5049875;28;1514;-61
2022/04/07 02:24:05;;;;;;;;;;;;;;;19.50;60.74;99831.78;5050804;28;1726;-61
2022/04/07 02:26:32;;;;;;;;;;;;;;;19.52;61.00;99828.94;5046033;28;1580;-58
2022/04/07 02:28:59;;;;;;;;;;;;;;;19.46;59.66;99825.91;5045919;28;1466;-58
2022/04/07 02:31:25;;;;;;;;;;;;;;;19.54;60.61;99826.94;5050834;28;1914;-58
2022/04/07 02:33:53;;;;;;;;;;;;;;;19.57;60.74;99815.88;5048255;28;1677;-62
2022/04/07 02:36:20;;;;;;;;;;;;;;;19.54;60.67;99810.88;5053600;28;1470;-62
2022/04/07 02:38:46;;;;;;;;;;;;;;;19.61;60.79;99817.25;5050562;28;1851;-58
2022/04/07 02:41:13;;;;;;;;;;;;;;;19.52;60.51;99807.47;5047450;28;1409;-58
2022/04/07 02:43:39;;;;;;;;;;;;;;;19.55;60.74;99815.22;5045775;28;1384;-58
2022/04/07 02:46:06;;;;;;;;;;;;;;;19.58;60.49;99805.00;5044172;28;1635;-59
2022/04/07 02:48:33;;;;;;;;;;;;;;;19.56;60.40;99792.78;5046670;28;1495;-62
2022/04/07 02:51:01;;;;;;;;;;;;;;;19.54;59.95;99797.44;5052157;28;1909;-61
2022/04/07 02:53:27;;;;;;;;;;;;;;;19.66;60.42;99780.06;5049936;28;1738;-62
2022/04/07 02:55:54;;;;;;;;;;;;;;;19.60;60.75;99770.81;5045773;28;1569;-58
2022/04/07 02:58:21;;;;;;;;;;;;;;;19.73;60.17;99762.31;5046631;28;1584;-62
2022/04/07 03:00:47;;;;;;;;;;;;;;;19.67;60.81;99769.13;5045413;28;1600;-62
2022/04/07 03:03:14;;;;;;;;;;;;;;;19.71;60.24;99758.09;5050897;28;1482;-62
2022/04/07 03:05:40;;;;;;;;;;;;;;;19.70;59.55;99757.25;5050426;28;1530;-58
2022/04/07 03:08:08;;;;;;;;;;;;;;;19.71;60.64;99748.22;5050425;28;1766;-58
2022/04/07 03:10:34;;;;;;;;;;;;;;;19.78;60.12;99743.06;5038738;28;1913;-59
2022/04/07 03:13:01;;;;;;;;;;;;;;;19.72;60.67;99723.09;5046374;28;1385;-59
2022/04/07 03:15:27;;;;;;;;;;;;;;;19.86;59.43;99711.69;5045198;28;1381;-59
2022/04/07 03:17:54;;;;;;;;;;;;;;;19.82;60.60;99725.63;5049373;28;1534;-62
2022/04/07 03:20:21;;;;;;;;;;;;;;;19.71;59.52;99726.78;5050420;28;1499;-62
2022/04/07 03:22:47;;;;;;;;;;;;;;;19.77;59.51;99725.28;5052754;28;1659;-59
2022/04/07 03:25:15;;;;;;;;;;;;;;;19.72;59.98;99715.06;5046724;28;1619;-62
2022/04/07 03:27:41;;;;;;;;;;;;;;;19.72;60.62;99696.28;5045198;28;1471;-62
2022/04/07 03:30:09;;;;;;;;;;;;;;;19.82;59.39;99707.69;5046592;28;1072;-59
2022/04/07 03:32:35;;;;;;;;;;;;;;;19.82;59.44;99705.00;5046604;28;1905;-62
2022/04/07 03:35:02;;;;;;;;;;;;;;;19.80;59.23;99708.84;5048102;28;1432;-59
2022/04/07 03:37:28;;;;;;;;;;;;;;;19.75;59.50;99684.38;5037671;28;1421;-59
2022/04/07 03:39:55;;;;;;;;;;;;;;;19.67;59.57;99699.41;5046244;28;1075;-59
2022/04/07 03:42:23;;;;;;;;;;;;;;;19.79;59.18;99686.53;5044256;28;1575;-59
2022/04/07 03:44:49;;;;;;;;;;;;;;;19.82;59.27;99674.66;5048674;28;1671;-59
2022/04/07 03:47:16;;;;;;;;;;;;;;;19.89;59.19;99704.31;5049107;28;1691;-59
2022/04/07 03:49:43;;;;;;;;;;;;;;;19.90;58.90;99677.34;5052007;28;1389;-63
2022/04/07 03:52:09;;;;;;;;;;;;;;;19.89;59.54;99661.41;5045821;28;1910;-59
2022/04/07 03:54:36;;;;;;;;;;;;;;;19.76;59.71;99681.53;5046628;28;1026;-62
2022/04/07 03:57:03;;;;;;;;;;;;;;;19.40;61.47;99667.53;5046325;28;1663;-59
2022/04/07 03:59:35;;;;;;;;;;;;;;;19.10;61.99;99660.91;5045911;28;1711;-63
2022/04/07 04:02:02;;;;;;;;;;;;;;;18.93;61.86;99668.91;5042045;28;1734;-59
2022/04/07 04:04:28;;;;;;;;;;;;;;;18.79;62.85;99650.75;5044695;28;1585;-64
2022/04/07 04:06:55;;;;;;;;;;;;;;;18.72;62.69;99657.72;5052153;28;1312;-70
2022/04/07 04:09:21;;;;;;;;;;;;;;;18.64;63.09;99654.03;5047185;28;1778;-71
2022/04/07 04:11:48;;;;;;;;;;;;;;;18.56;62.94;99651.31;5045656;28;1914;-73
2022/04/07 04:14:15;;;;;;;;;;;;;;;18.52;63.27;99627.69;5044454;28;1643;-66
2022/04/07 04:16:43;;;;;;;;;;;;;;;18.45;64.00;99630.19;5047414;28;1583;-69
2022/04/07 04:19:09;;;;;;;;;;;;;;;18.45;63.92;99628.34;5047004;28;1158;-72
2022/04/07 04:21:36;;;;;;;;;;;;;;;18.45;63.72;99627.50;5044007;28;1272;-58
2022/04/07 04:24:03;;;;;;;;;;;;;;;18.35;62.66;99627.63;5046959;28;1550;-58
2022/04/07 04:26:29;;;;;;;;;;;;;;;18.26;62.23;99637.44;5043935;28;1592;-62
2022/04/07 04:28:56;;;;;;;;;;;;;;;18.20;62.78;99623.84;5043334;28;1587;-62
2022/04/07 04:31:24;;;;;;;;;;;;;;;18.23;63.55;99629.72;5046299;28;1971;-57
2022/04/07 04:33:52;;;;;;;;;;;;;;;18.17;63.27;99595.56;5042540;28;1627;-59
2022/04/07 04:36:19;;;;;;;;;;;;;;;18.19;63.58;99614.97;5046435;28;1471;-63
2022/04/07 04:38:45;;;;;;;;;;;;;;;18.21;61.91;99615.66;5047793;28;1425;-62
2022/04/07 04:41:12;;;;;;;;;;;;;;;18.17;62.64;99613.47;5046527;28;1326;-59
2022/04/07 04:43:38;;;;;;;;;;;;;;;18.21;61.97;99596.94;5051005;28;1687;-62
2022/04/07 04:46:06;;;;;;;;;;;;;;;18.23;62.45;99610.97;5048092;28;1604;-62
2022/04/07 04:48:32;;;;;;;;;;;;;;;18.15;62.35;99612.78;5044737;28;1264;-64
2022/04/07 04:51:02;;;;;;;;;;;;;;;18.10;63.21;99591.84;5033428;28;1914;-62
2022/04/07 04:53:29;;;;;;;;;;;;;;;18.06;63.56;99596.69;5046118;28;1542;-59
2022/04/07 04:55:55;;;;;;;;;;;;;;;18.09;63.03;99593.69;5042715;28;1401;-63
2022/04/07 04:58:22;;;;;;;;;;;;;;;18.07;63.55;99586.81;5048089;28;1820;-59
2022/04/07 05:00:49;;;;;;;;;;;;;;;18.07;62.71;99587.66;5051403;28;1532;-59
2022/04/07 05:03:15;;;;;;;;;;;;;;;18.14;62.84;99577.13;5048760;28;1511;-63
2022/04/07 05:05:42;;;;;;;;;;;;;;;18.08;62.92;99588.47;5051366;28;1435;-58
2022/04/07 05:08:10;;;;;;;;;;;;;;;18.08;63.12;99589.34;5048306;28;1720;-59
2022/04/07 05:10:39;;;;;;;;;;;;;;;18.04;63.20;99581.78;5037109;28;1593;-58
2022/04/07 05:13:05;;;;;;;;;;;;;;;18.05;62.91;99546.00;5048647;28;1898;-58
2022/04/07 05:15:32;;;;;;;;;;;;;;;18.02;62.80;99557.00;5047689;28;1684;-62
2022/04/07 05:17:58;;;;;;;;;;;;;;;18.06;63.00;99542.31;5048470;28;1482;-63
2022/04/07 05:20:25;;;;;;;;;;;;;;;18.11;62.77;99556.06;5053820;28;1435;-59
2022/04/07 05:22:51;;;;;;;;;;;;;;;18.14;62.33;99550.38;5055743;28;1657;-58
2022/04/07 05:25:19;;;;;;;;;;;;;;;18.16;62.42;99544.88;5054649;28;1530;-63
2022/04/07 05:27:45;;;;;;;;;;;;;;;18.19;63.03;99547.25;5053161;28;1586;-62
2022/04/07 05:30:15;;;;;;;;;;;;;;;18.21;62.16;99554.13;5051104;28;1451;-63
2022/04/07 05:32:42;;;;;;;;;;;;;;;18.25;62.03;99550.13;5053731;28;1973;-63
2022/04/07 05:35:09;;;;;;;;;;;;;;;18.29;62.83;99542.63;5053108;28;1696;-70
2022/04/07 05:37:36;;;;;;;;;;;;;;;18.35;62.21;99528.59;5056542;28;1482;-67
2022/04/07 05:40:02;;;;;;;;;;;;;;;18.42;62.52;99539.47;5054401;28;1388;-59
2022/04/07 05:42:30;;;;;;;;;;;;;;;18.36;62.30;99521.38;5037301;28;1064;-59
2022/04/07 05:44:57;;;;;;;;;;;;;;;18.33;62.61;99516.38;5051545;28;1460;-64
2022/04/07 05:47:23;;;;;;;;;;;;;;;18.45;62.68;99517.75;5054098;28;1637;-62
2022/04/07 05:49:49;;;;;;;;;;;;;;;18.50;62.39;99523.44;5049166;28;1312;-59
2022/04/07 05:52:16;;;;;;;;;;;;;;;18.56;62.31;99501.41;5050446;28;1973;-66
2022/04/07 05:54:42;;;;;;;;;;;;;;;18.59;62.42;99509.09;5055061;28;1553;-65
2022/04/07 05:57:09;;;;;;;;;;;;;;;18.58;63.26;99498.53;5049249;28;1718;-68
2022/04/07 05:59:37;;;;;;;;;;;;;;;18.71;62.76;99509.63;5048833;28;1778;-67
2022/04/07 06:02:04;;;;;;;;;;;;;;;18.82;62.53;99505.81;5043601;28;1743;-58
2022/04/07 06:04:30;;;;;;;;;;;;;;;18.81;62.25;99482.72;5045866;28;1296;-59
2022/04/07 06:06:57;;;;;;;;;;;;;;;18.87;62.19;99496.28;5057400;28;1076;-60
2022/04/07 06:09:23;;;;;;;;;;;;;;;18.86;63.01;99491.06;5055036;28;1719;-60
2022/04/07 06:11:50;;;;;;;;;;;;;;;18.81;63.11;99478.19;5045409;28;1906;-61
2022/04/07 06:14:17;;;;;;;;;;;;;;;18.77;62.48;99473.31;5054133;28;1517;-60
2022/04/07 06:16:45;;;;;;;;;;;;;;;18.78;63.48;99483.00;5050770;28;1611;-58
2022/04/07 06:19:11;;;;;;;;;;;;;;;18.82;62.54;99471.84;5046341;28;1226;-55
2022/04/07 06:21:37;;;;;;;;;;;;;;;18.86;62.19;99458.94;5051070;28;1491;-56
2022/04/07 06:24:04;;;;;;;;;;;;;;;18.87;62.85;99457.94;5053547;28;1595;-62
2022/04/07 06:26:31;;;;;;;;;;;;;;;18.94;62.77;99471.50;5046351;28;1650;-55
2022/04/07 06:28:58;;;;;;;;;;;;;;;18.92;62.31;99463.66;5050667;28;1518;-59
2022/04/07 06:31:24;;;;;;;;;;;;;;;18.93;61.38;99448.41;5043914;28;1977;-62
2022/04/07 06:33:52;;;;;;;;;;;;;;;18.88;61.90;99440.88;5050467;28;1462;-56
2022/04/07 06:36:18;;;;;;;;;;;;;;;18.83;62.00;99432.50;5047289;28;1761;-59
2022/04/07 06:38:45;;;;;;;;;;;;;;;18.82;61.36;99429.00;5045068;28;1523;-55
2022/04/07 06:41:11;;;;;;;;;;;;;;;18.79;61.68;99431.13;5052468;28;1621;-55
2022/04/07 06:43:38;;;;;;;;;;;;;;;18.82;61.54;99415.59;5047546;28;1684;-60
2022/04/07 06:46:05;;;;;;;;;;;;;;;18.81;61.97;99423.81;5044355;28;1485;-58
2022/04/07 06:48:31;;;;;;;;;;;;;;;18.89;60.93;99431.84;5054679;28;1215;-55
2022/04/07 06:50:59;;;;;;;;;;;;;;;18.86;61.00;99432.16;5054578;28;1332;-55
2022/04/07 06:53:25;;;;;;;;;;;;;;;18.89;61.62;99423.78;5053779;28;1914;-55
2022/04/07 06:55:52;;;;;;;;;;;;;;;18.87;60.91;99425.81;5052788;28;1728;-56
2022/04/07 06:58:18;;;;;;;;;;;;;;;18.89;61.60;99431.84;5053795;28;1668;-55
2022/04/07 07:00:45;;;;;;;;;;;;;;;18.90;61.59;99419.28;5054667;28;1501;-58
2022/04/07 07:03:13;;;;;;;;;;;;;;;18.95;61.77;99433.00;5049984;28;1317;-58
2022/04/07 07:05:40;;;;;;;;;;;;;;;18.99;62.31;99415.59;5041051;28;1335;-62
2022/04/07 07:08:18;;;;;;;;;;;;;;;19.04;60.95;99414.09;5053090;28;1637;-63
2022/04/07 07:10:45;;;;;;;;;;;;;;;18.86;56.75;99413.41;5049010;28;1617;-57
2022/04/07 07:13:12;;;;;;;;;;;;;;;18.65;60.44;99390.63;5052460;28;1902;-57
2022/04/07 07:15:39;;;;;;;;;;;;;;;18.78;58.29;99403.53;5049234;28;1591;-56
2022/04/07 07:18:06;;;;;;;;;;;;;;;18.85;56.08;99401.03;5045191;28;1393;-56
2022/04/07 07:20:32;;;;;;;;;;;;;;;18.84;54.13;99402.03;5045012;28;1054;-61
2022/04/07 07:22:58;;;;;;;;;;;;;;;18.85;55.82;99403.72;5051588;28;1499;-61
2022/04/07 07:25:27;;;;;;;;;;;;;;;18.80;55.20;99396.19;5042654;28;1440;-56
2022/04/07 07:27:53;;;;;;;;;;;;;;;18.74;54.49;99395.97;5044568;28;1584;-56
2022/04/07 07:30:20;;;;;;;;;;;;;;;18.80;52.14;99416.75;5044152;28;1011;-56
2022/04/07 07:32:47;;;;;;;;;;;;;;;18.74;54.83;99412.03;5047101;28;1977;-61
2022/04/07 07:35:13;;;;;;;;;;;;;;;18.74;51.37;99406.69;5046484;28;1893;-61
2022/04/07 07:37:47;;;;;;;;;;;;;;;18.67;54.04;99398.50;5036912;28;1469;-61
2022/04/07 07:40:14;;;;;;;;;;;;;;;18.67;52.54;99393.13;5045324;28;1652;-61
2022/04/07 07:42:42;;;;;;;;;;;;;;;18.61;54.41;99402.66;5046564;28;979;-61
2022/04/07 07:45:09;;;;;;;;;;;;;;;18.62;52.32;99396.31;5045794;28;1024;-56
2022/04/07 07:47:35;;;;;;;;;;;;;;;18.63;51.50;99395.28;5046880;28;1790;-61
2022/04/07 07:50:02;;;;;;;;;;;;;;;18.61;52.93;99381.25;5045808;28;1806;-59
2022/04/07 07:52:29;;;;;;;;;;;;;;;18.59;53.22;99388.59;5037202;28;1978;-56
2022/04/07 07:54:55;;;;;;;;;;;;;;;18.57;53.09;99395.97;5045572;28;1592;-56
2022/04/07 07:57:22;;;;;;;;;;;;;;;18.56;53.48;99398.81;5046328;28;979;-61
2022/04/07 07:59:51;;;;;;;;;;;;;;;18.56;53.03;99398.81;5046374;28;1704;-56
2022/04/07 08:02:17;;;;;;;;;;;;;;;18.50;53.65;99397.63;5040175;28;1552;-61
2022/04/07 08:04:43;;;;;;;;;;;;;;;18.43;52.36;99388.59;5044953;28;1549;-56
2022/04/07 08:07:10;;;;;;;;;;;;;;;18.42;52.28;99389.59;5050053;28;1393;-56
2022/04/07 08:09:36;;;;;;;;;;;;;;;18.38;52.67;99386.44;5043666;28;990;-56
2022/04/07 08:12:03;;;;;;;;;;;;;;;18.39;51.69;99389.94;5047234;28;1906;-56
2022/04/07 08:14:30;;;;;;;;;;;;;;;18.36;52.64;99399.09;5045887;28;1679;-56
2022/04/07 08:16:58;;;;;;;;;;;;;;;18.37;52.07;99389.25;5040769;28;1428;-60
2022/04/07 08:19:24;;;;;;;;;;;;;;;18.40;52.82;99384.41;5046726;28;1642;-61
2022/04/07 08:21:51;;;;;;;;;;;;;;;18.41;52.96;99367.34;5038626;28;1039;-56
2022/04/07 08:24:19;;;;;;;;;;;;;;;18.44;53.13;99369.69;5046117;28;1889;-60
2022/04/07 08:26:46;;;;;;;;;;;;;;;18.46;53.67;99364.16;5045166;28;1763;-56
2022/04/07 08:29:12;;;;;;;;;;;;;;;18.44;54.04;99350.09;5044201;28;1640;-56
2022/04/07 08:31:38;;;;;;;;;;;;;;;18.47;53.06;99363.16;5042840;28;1229;-60
2022/04/07 08:34:06;;;;;;;;;;;;;;;18.46;53.75;99359.66;5041799;28;1957;-56
2022/04/07 08:36:33;;;;;;;;;;;;;;;18.47;53.14;99347.94;5043664;28;1023;-60
2022/04/07 08:38:59;;;;;;;;;;;;;;;18.52;52.43;99363.50;5042042;28;1731;-60
2022/04/07 08:41:31;;;;;;;;;;;;;;;18.52;52.03;99350.09;5044061;28;1381;-55
2022/04/07 08:43:58;;;;;;;;;;;;;;;18.55;52.09;99371.19;5044515;28;1420;-60
2022/04/07 08:46:24;;;;;;;;;;;;;;;18.53;51.67;99349.13;5041533;28;1992;-59
2022/04/07 08:48:50;;;;;;;;;;;;;;;18.51;50.65;99350.28;5042466;28;1467;-60
2022/04/07 08:51:20;;;;;;;;;;;;;;;18.44;49.81;99334.03;5045856;28;987;-56
2022/04/07 08:53:48;;;;;;;;;;;;;;;18.47;48.25;99336.41;5048320;28;1983;-60
2022/04/07 08:56:14;;;;;;;;;;;;;;;18.43;47.46;99335.06;5045552;28;1533;-61
2022/04/07 08:58:41;;;;;;;;;;;;;;;18.35;49.07;99335.88;5047673;28;1600;-61
2022/04/07 09:01:07;;;;;;;;;;;;;;;18.36;45.48;99324.16;5047791;28;1625;-56
2022/04/07 09:03:33;;;;;;;;;;;;;;;18.32;46.72;99340.72;5048059;28;1417;-61
2022/04/07 09:06:01;;;;;;;;;;;;;;;18.29;47.61;99344.59;5048349;28;1068;-61
2022/04/07 09:08:33;;;;;;;;;;;;;;;18.27;47.44;99346.59;5051922;28;1794;-56
2022/04/07 09:10:59;;;;;;;;;;;;;;;18.24;48.80;99347.78;5047787;28;1596;-56
2022/04/07 09:13:29;;;;;;;;;;;;;;;18.19;49.31;99368.81;5050468;28;1983;-60
2022/04/07 09:15:56;;;;;;;;;;;;;;;18.22;47.93;99370.31;5051796;28;1550;-64
2022/04/07 09:18:23;;;;;;;;;;;;;;;18.23;48.17;99377.34;5045837;28;1872;-69
2022/04/07 09:20:49;;;;;;;;;;;;;;;18.17;48.91;99351.25;5049505;28;1030;-66
2022/04/07 09:23:17;;;;;;;;;;;;;;;18.21;48.77;99364.13;5051591;28;1690;-68
2022/04/07 09:25:47;;;;;;;;;;;;;;;18.26;48.88;99367.16;5056816;28;1637;-60
2022/04/07 09:28:13;;;;;;;;;;;;;;;18.25;49.16;99353.94;5052126;28;1449;-64
2022/04/07 09:30:41;;;;;;;;;;;;;;;18.28;49.13;99359.81;5052962;28;1455;-58
2022/04/07 09:33:19;;;;;;;;;;;;;;;18.18;50.73;99343.03;5053678;28;1905;-58
2022/04/07 09:35:58;;;;;;;;;;;;;;;18.08;51.29;99347.72;5048635;28;1008;-57
2022/04/07 09:38:25;;;;;;;;;;;;;;;18.03;51.48;99328.66;5050768;28;1629;-58
2022/04/07 09:40:53;;;;;;;;;;;;;;;18.01;51.45;99341.38;5049043;28;1245;-70
2022/04/07 09:43:21;;;;;;;;;;;;;;;17.95;52.25;99337.50;5044446;28;1199;-57
2022/04/07 09:45:47;;;;;;;;;;;;;;;17.94;52.16;99334.97;5046575;28;1615;-70
2022/04/07 09:48:17;;;;;;;;;;;;;;;17.94;52.24;99332.31;5047780;28;1436;-70
2022/04/07 09:51:01;;;;;;;;;;;;;;;17.93;53.00;99328.81;5037738;28;1045;-57
2022/04/07 09:53:30;;;;;;;;;;;;;;;17.92;52.75;99320.94;5044779;28;1902;-58
2022/04/07 09:55:58;;;;;;;;;;;;;;;17.92;53.09;99320.94;5048601;28;1374;-70
2022/04/07 09:58:25;;;;;;;;;;;;;;;17.87;53.21;99319.59;5044254;28;1518;-70
2022/04/07 10:00:51;;;;;;;;;;;;;;;17.91;53.53;99319.28;5046684;28;1489;-58
2022/04/07 10:03:18;;;;;;;;;;;;;;;17.92;54.01;99320.94;5049090;28;1447;-70
2022/04/07 10:05:47;;;;;;;;;;;;;;;17.86;53.86;99320.59;5037076;28;1004;-67
2022/04/07 10:08:16;;;;;;;;;;;;;;;17.86;54.10;99304.53;5039461;28;1617;-58
2022/04/07 10:10:43;;;;;;;;;;;;;;;17.86;54.45;99306.38;5053248;28;1431;-64
2022/04/07 10:13:12;;;;;;;;;;;;;;;17.84;53.84;99314.56;5044779;28;2004;-70
2022/04/07 10:15:39;;;;;;;;;;;;;;;17.86;54.65;99317.91;5052626;28;1559;-70
2022/04/07 10:18:09;;;;;;;;;;;;;;;17.83;54.04;99330.75;5055228;28;1514;-69
2022/04/07 10:20:39;;;;;;;;;;;;;;;17.82;54.48;99295.13;5046951;28;1525;-58
2022/04/07 10:23:13;;;;;;;;;;;;;;;17.78;54.94;99299.13;5053010;28;1704;-70
2022/04/07 10:25:43;;;;;;;;;;;;;;;17.80;54.81;99305.16;5053106;28;1637;-66
2022/04/07 10:28:11;;;;;;;;;;;;;;;17.82;55.23;99302.31;5044956;28;1255;-69
2022/04/07 10:30:48;;;;;;;;;;;;;;;17.76;55.02;99311.84;5053552;28;1526;-58
2022/04/07 10:33:29;;;;;;;;;;;;;;;17.80;55.43;99326.56;5036785;28;1910;-58
2022/04/07 10:35:56;;;;;;;;;;;;;;;17.81;55.00;99303.34;5044487;28;1352;-70
2022/04/07 10:38:36;;;;;;;;;;;;;;;17.75;55.46;99298.66;5050877;28;1652;-70
2022/04/07 10:41:02;;;;;;;;;;;;;;;17.80;55.37;99299.81;5041426;28;1378;-58
2022/04/07 10:43:29;;;;;;;;;;;;;;;17.75;55.00;99285.28;5051675;28;1439;-74
2022/04/07 10:46:10;;;;;;;;;;;;;;;17.82;55.42;99294.31;5050667;28;1514;-58
2022/04/07 10:48:44;;;;;;;;;;;;;;;17.81;55.89;99306.84;5054400;28;1711;-58
2022/04/07 10:51:11;;;;;;;;;;;;;;;17.80;56.10;99301.66;5045121;28;1048;-70
2022/04/07 10:53:39;;;;;;;;;;;;;;;17.81;55.84;99304.19;5043364;28;1971;-58
2022/04/07 10:56:06;;;;;;;;;;;;;;;17.86;55.98;99303.69;5049714;28;1577;-57
2022/04/07 10:58:40;;;;;;;;;;;;;;;17.86;56.17;99290.34;5048250;28;1568;-58
2022/04/07 11:01:08;;;;;;;;;;;;;;;17.98;56.20;99283.66;5045322;28;1313;-68
2022/04/07 11:03:35;;;;;;;;;;;;;;;17.93;56.33;99279.84;5044937;28;1564;-68
2022/04/07 11:06:04;;;;;;;;;;;;;;;18.08;56.22;99296.88;5044781;28;1172;-68
2022/04/07 11:08:30;;;;;;;;;;;;;;;18.15;55.95;99289.88;5044834;28;1422;-59
2022/04/07 11:10:57;;;;;;;;;;;;;;;18.30;56.01;99303.44;5051919;28;1290;-68
2022/04/07 11:13:38;;;;;;;;;;;;;;;18.46;55.62;99292.75;5050740;28;1902;-58
2022/04/07 11:16:12;;;;;;;;;;;;;;;18.54;55.50;99297.22;5052956;28;1702;-68
2022/04/07 11:18:49;;;;;;;;;;;;;;;18.63;55.50;99293.56;5041362;28;1403;-68
2022/04/07 11:21:15;;;;;;;;;;;;;;;18.65;55.78;99304.94;5050843;28;1242;-67
2022/04/07 11:23:43;;;;;;;;;;;;;;;18.61;55.09;99319.66;5044789;28;1572;-68
2022/04/07 11:26:12;;;;;;;;;;;;;;;18.55;55.56;99323.00;5048499;28;1600;-58
2022/04/07 11:28:39;;;;;;;;;;;;;;;18.59;56.23;99327.03;5048592;28;1994;-58
2022/04/07 11:31:07;;;;;;;;;;;;;;;18.69;56.19;99329.53;5043965;28;1382;-68
2022/04/07 11:33:36;;;;;;;;;;;;;;;18.73;56.20;99325.50;5045848;28;1911;-58
2022/04/07 11:36:32;;;;;;;;;;;;;;;18.77;56.18;99331.38;5045343;28;1245;-58
2022/04/07 11:38:59;;;;;;;;;;;;;;;18.82;56.23;99327.22;5038719;28;1468;-67
2022/04/07 11:41:31;;;;;;;;;;;;;;;18.84;55.95;99327.03;5040312;28;1312;-58
2022/04/07 11:43:58;;;;;;;;;;;;;;;18.74;55.85;99327.19;5044855;28;1642;-58
2022/04/07 11:46:26;;;;;;;;;;;;;;;18.78;56.08;99333.88;5044909;28;1588;-61
2022/04/07 11:48:53;;;;;;;;;;;;;;;19.04;54.95;99340.91;5052396;28;1653;-57
2022/04/07 11:51:21;;;;;;;;;;;;;;;19.03;55.31;99339.22;5054690;28;1664;-57
2022/04/07 11:53:52;;;;;;;;;;;;;;;19.23;55.12;99337.00;5050840;28;1980;-57
2022/04/07 11:56:20;;;;;;;;;;;;;;;19.22;56.05;99322.78;5047873;28;1239;-61
2022/04/07 11:58:50;;;;;;;;;;;;;;;19.34;54.72;99323.25;5047172;28;1607;-61
2022/04/07 12:01:16;;;;;;;;;;;;;;;19.50;55.45;99316.13;5051243;28;1704;-56
2022/04/07 12:03:43;;;;;;;;;;;;;;;19.65;54.14;99312.53;5052369;28;1649;-61
2022/04/07 12:06:09;;;;;;;;;;;;;;;19.53;55.72;99316.63;5048386;28;1477;-65
2022/04/07 12:08:37;;;;;;;;;;;;;;;19.44;55.11;99310.47;5047646;28;1718;-68
2022/04/07 12:11:05;;;;;;;;;;;;;;;19.66;54.74;99305.34;5043739;28;1432;-52
2022/04/07 12:13:33;;;;;;;;;;;;;;;19.54;54.98;99306.75;5041615;28;1906;-60
2022/04/07 12:16:01;;;;;;;;;;;;;;;19.45;56.07;99301.41;5040354;28;1409;-61
2022/04/07 12:18:27;;;;;;;;;;;;;;;19.49;55.35;99317.97;5040429;28;1414;-59
2022/04/07 12:21:01;;;;;;;;;;;;;;;19.38;55.96;99318.38;5035506;28;1102;-57
2022/04/07 12:23:28;;;;;;;;;;;;;;;19.39;57.33;99315.50;5040850;28;1233;-58
2022/04/07 12:25:59;;;;;;;;;;;;;;;19.25;57.22;99322.41;5043290;28;1524;-55
2022/04/07 12:28:32;;;;;;;;;;;;;;;19.01;57.94;99328.69;5040388;28;1457;-59
2022/04/07 12:30:59;;;;;;;;;;;;;;;18.86;58.12;99325.00;5038790;28;1320;-62
2022/04/07 12:33:39;;;;;;;;;;;;;;;18.83;58.04;99331.56;5045084;28;1910;-55
2022/04/07 12:36:06;;;;;;;;;;;;;;;18.73;58.94;99328.19;5038314;28;1095;-60
2022/04/07 12:38:32;;;;;;;;;;;;;;;19.05;57.09;99330.00;5046307;28;1464;-56
2022/04/07 12:41:10;;;;;;;;;;;;;;;18.96;58.69;99323.00;5043663;28;1414;-56
2022/04/07 12:43:47;;;;;;;;;;;;;;;19.33;56.80;99329.59;5039458;28;1412;-60
2022/04/07 12:46:13;;;;;;;;;;;;;;;19.09;58.26;99317.13;5041769;28;1417;-56
2022/04/07 12:48:55;;;;;;;;;;;;;;;18.83;58.65;99312.81;5043739;28;1394;-57
2022/04/07 12:51:26;;;;;;;;;;;;;;;19.20;57.76;99313.22;5040772;28;1245;-55
2022/04/07 12:54:04;;;;;;;;;;;;;;;19.14;57.47;99313.91;5041408;28;1906;-57
2022/04/07 12:56:32;;;;;;;;;;;;;;;19.13;58.39;99309.56;5042391;28;1229;-56
2022/04/07 12:59:03;;;;;;;;;;;;;;;19.05;58.81;99286.31;5042649;28;1444;-59
2022/04/07 13:01:30;;;;;;;;;;;;;;;19.03;58.02;99307.09;5040804;28;1679;-56